Time;durP1;ratioP1;P1;durP2;ratioP2;P2;SDS_P1;SDS_P2;PMS_P1;PMS_P2;Temp;Humidity;BMP_temperature;BMP_pressure;BME280_temperature;BME280_humidity;BME280_pressure;Samples;Min_cycle;Max_cycle;Signal;HPM_P1;HPM_P2
2022/10/28 00:00:24;;;;;;;16.08;8.30;;;15.30;99.90;;;;;;5046414;28;20049;-42
2022/10/28 00:02:51;;;;;;;24.00;9.30;;;15.30;99.90;;;;;;5054052;28;20124;-45
2022/10/28 00:05:19;;;;;;;24.50;10.25;;;15.30;99.90;;;;;;5050609;28;20128;-43
2022/10/28 00:07:46;;;;;;;20.80;9.32;;;15.20;99.90;;;;;;5026961;28;20050;-41
2022/10/28 00:10:13;;;;;;;23.27;10.57;;;15.20;99.90;;;;;;5052284;28;20084;-42
2022/10/28 00:12:39;;;;;;;17.17;10.15;;;15.20;99.90;;;;;;5051300;28;20128;-42
2022/10/28 00:15:07;;;;;;;23.25;10.00;;;15.20;99.90;;;;;;5050175;28;20059;-42
2022/10/28 00:17:34;;;;;;;20.33;10.05;;;15.10;99.90;;;;;;5034586;28;20515;-41
2022/10/28 00:20:00;;;;;;;25.73;10.25;;;15.10;99.90;;;;;;5030609;28;20139;-42
2022/10/28 00:22:29;;;;;;;22.15;10.77;;;15.10;99.90;;;;;;5052223;28;20144;-44
2022/10/28 00:24:55;;;;;;;22.70;10.20;;;15.10;99.90;;;;;;5035940;28;20140;-42
2022/10/28 00:27:22;;;;;;;23.33;10.38;;;15.10;99.90;;;;;;5036503;28;20048;-44
2022/10/28 00:29:49;;;;;;;22.63;11.65;;;15.10;99.90;;;;;;5036816;28;20124;-40
2022/10/28 00:32:15;;;;;;;24.60;11.63;;;15.20;99.90;;;;;;5052432;28;20522;-41
2022/10/28 00:34:42;;;;;;;20.25;10.60;;;15.10;99.90;;;;;;5051332;28;20140;-42
2022/10/28 00:37:09;;;;;;;23.30;12.23;;;15.10;99.90;;;;;;5036219;28;20132;-41
2022/10/28 00:39:37;;;;;;;27.05;12.18;;;15.10;99.90;;;;;;5029964;28;20347;-43
2022/10/28 00:42:06;;;;;;;26.83;11.52;;;15.20;99.90;;;;;;5031708;28;20041;-42
2022/10/28 00:44:55;;;;;;;26.67;12.05;;;15.20;99.90;;;;;;5052820;28;20053;-41
2022/10/28 00:47:42;;;;;;;22.48;11.55;;;15.20;99.90;;;;;;5052853;28;20052;-42
2022/10/28 00:50:40;;;;;;;24.40;12.07;;;15.30;99.90;;;;;;5050480;28;20491;-42
2022/10/28 00:53:09;;;;;;;20.65;12.07;;;15.30;99.90;;;;;;5034149;28;20458;-42
2022/10/28 00:55:38;;;;;;;24.23;12.55;;;15.30;99.90;;;;;;5034566;28;20132;-41
2022/10/28 00:58:05;;;;;;;29.98;12.32;;;15.30;99.90;;;;;;5052077;28;20059;-42
2022/10/28 01:00:31;;;;;;;22.10;12.68;;;15.30;99.90;;;;;;5029433;28;20474;-43
2022/10/28 01:02:58;;;;;;;23.35;13.00;;;15.30;99.90;;;;;;5047446;28;20126;-44
2022/10/28 01:05:27;;;;;;;27.25;13.70;;;15.30;99.90;;;;;;5051662;28;20073;-41
2022/10/28 01:07:57;;;;;;;26.42;13.23;;;15.30;99.90;;;;;;5052459;28;20080;-42
2022/10/28 01:10:29;;;;;;;31.40;14.52;;;15.30;99.90;;;;;;5035919;28;20452;-42
2022/10/28 01:13:02;;;;;;;34.95;13.50;;;15.20;99.90;;;;;;5035011;28;20085;-41
2022/10/28 01:15:33;;;;;;;21.45;13.02;;;15.30;99.90;;;;;;5033889;28;20138;-42
2022/10/28 01:18:05;;;;;;;25.08;13.32;;;15.30;99.90;;;;;;5035219;28;20045;-42
2022/10/28 01:20:44;;;;;;;22.65;13.43;;;15.30;99.90;;;;;;5047296;28;20092;-43
2022/10/28 01:23:14;;;;;;;21.77;13.05;;;15.20;99.90;;;;;;5050710;28;20045;-41
2022/10/28 01:26:02;;;;;;;26.50;13.38;;;15.20;99.90;;;;;;5032216;28;20049;-43
2022/10/28 01:28:55;;;;;;;28.25;13.40;;;15.20;99.90;;;;;;5052369;28;20044;-41
2022/10/28 01:31:28;;;;;;;29.02;13.45;;;15.20;99.90;;;;;;5026919;28;20091;-41
2022/10/28 01:33:59;;;;;;;24.67;13.68;;;15.20;99.90;;;;;;5051351;28;20128;-41
2022/10/28 01:36:31;;;;;;;24.45;14.18;;;15.20;99.90;;;;;;5032565;28;20091;-41
2022/10/28 01:39:03;;;;;;;28.73;13.88;;;15.20;99.90;;;;;;5052304;28;20131;-41
2022/10/28 01:41:30;;;;;;;31.58;14.95;;;15.10;99.90;;;;;;5050874;28;20080;-42
2022/10/28 01:43:59;;;;;;;27.35;13.93;;;15.20;99.90;;;;;;5051273;28;20493;-42
2022/10/28 01:46:28;;;;;;;30.05;15.35;;;15.10;99.90;;;;;;5034327;28;20099;-41
2022/10/28 01:48:56;;;;;;;28.60;15.10;;;15.10;99.90;;;;;;5051637;28;20408;-41
2022/10/28 01:51:25;;;;;;;23.88;13.63;;;15.10;99.90;;;;;;5034075;28;20079;-41
2022/10/28 01:53:53;;;;;;;30.33;14.30;;;15.20;99.90;;;;;;5050786;28;20127;-40
2022/10/28 01:56:22;;;;;;;26.70;14.85;;;15.10;99.90;;;;;;5051783;28;20550;-42
2022/10/28 01:58:49;;;;;;;28.88;15.35;;;15.20;99.90;;;;;;5048266;28;20065;-41
2022/10/28 02:01:16;;;;;;;24.10;13.95;;;15.10;99.90;;;;;;5032097;28;20183;-43
2022/10/28 02:03:45;;;;;;;32.75;15.93;;;15.10;99.90;;;;;;5025962;28;20081;-41
2022/10/28 02:06:15;;;;;;;32.28;16.52;;;15.10;99.90;;;;;;5043791;28;20072;-40
2022/10/28 02:08:51;;;;;;;29.42;15.38;;;15.10;99.90;;;;;;5051080;28;20152;-40
2022/10/28 02:11:25;;;;;;;35.22;16.35;;;15.10;99.90;;;;;;5051550;28;20502;-40
2022/10/28 02:13:55;;;;;;;30.42;15.05;;;15.10;99.90;;;;;;5051548;28;20163;-39
2022/10/28 02:16:24;;;;;;;32.08;16.40;;;15.00;99.90;;;;;;5050653;28;20049;-40
2022/10/28 02:18:56;;;;;;;29.00;16.60;;;15.00;99.90;;;;;;5049176;28;20132;-40
2022/10/28 02:21:26;;;;;;;38.28;16.58;;;15.00;99.90;;;;;;5050664;28;20139;-41
2022/10/28 02:23:55;;;;;;;30.75;16.38;;;15.00;99.90;;;;;;5024879;28;20136;-40
2022/10/28 02:26:23;;;;;;;31.63;16.50;;;15.00;99.90;;;;;;5041622;28;20052;-39
2022/10/28 02:28:54;;;;;;;34.13;17.15;;;15.00;99.90;;;;;;5050750;28;20053;-40
2022/10/28 02:31:23;;;;;;;31.15;15.52;;;15.00;99.90;;;;;;5018359;28;20549;-39
2022/10/28 02:33:53;;;;;;;35.50;16.77;;;15.00;99.90;;;;;;5051464;28;20084;-39
2022/10/28 02:36:20;;;;;;;31.65;16.88;;;15.00;99.90;;;;;;5050351;28;20053;-40
2022/10/28 02:38:47;;;;;;;30.02;16.08;;;15.00;99.90;;;;;;5031924;28;20076;-41
2022/10/28 02:41:16;;;;;;;27.27;15.35;;;15.00;99.90;;;;;;5033777;28;20080;-40
2022/10/28 02:43:43;;;;;;;30.48;15.70;;;15.00;99.90;;;;;;5049375;28;20067;-39
2022/10/28 02:46:09;;;;;;;33.72;16.83;;;15.00;99.90;;;;;;5034303;28;20049;-39
2022/10/28 02:48:38;;;;;;;35.00;16.05;;;15.00;99.90;;;;;;5036293;28;20091;-40
2022/10/28 02:51:09;;;;;;;32.55;15.52;;;15.00;99.90;;;;;;5054155;28;20060;-41
2022/10/28 02:53:39;;;;;;;30.63;16.02;;;15.00;99.90;;;;;;5055665;28;20053;-42
2022/10/28 02:56:06;;;;;;;34.47;16.50;;;14.90;99.90;;;;;;5055937;28;20041;-40
2022/10/28 02:58:38;;;;;;;28.52;14.80;;;15.00;99.90;;;;;;5054974;28;20049;-40
2022/10/28 03:01:05;;;;;;;32.30;15.60;;;15.00;99.90;;;;;;5055939;28;20482;-40
2022/10/28 03:03:32;;;;;;;32.92;15.93;;;14.90;99.90;;;;;;5054721;28;20049;-39
2022/10/28 03:05:58;;;;;;;32.90;15.75;;;14.90;99.90;;;;;;5037124;28;20060;-40
2022/10/28 03:08:26;;;;;;;35.35;15.15;;;14.90;99.90;;;;;;5054057;28;20128;-39
2022/10/28 03:10:53;;;;;;;38.20;16.27;;;14.90;99.90;;;;;;5038360;28;20481;-39
2022/10/28 03:13:20;;;;;;;26.63;16.17;;;14.90;99.90;;;;;;5054539;28;20412;-37
2022/10/28 03:15:47;;;;;;;30.42;16.13;;;14.90;99.90;;;;;;5052143;28;20041;-38
2022/10/28 03:18:16;;;;;;;29.27;15.85;;;14.90;99.90;;;;;;5053942;28;20141;-39
2022/10/28 03:20:43;;;;;;;33.85;15.93;;;14.90;99.90;;;;;;5054381;28;20095;-39
2022/10/28 03:23:10;;;;;;;30.05;15.48;;;14.90;99.90;;;;;;5037627;28;20045;-38
2022/10/28 03:25:38;;;;;;;28.80;14.98;;;14.90;99.90;;;;;;5055256;28;20445;-42
2022/10/28 03:28:05;;;;;;;36.17;16.58;;;14.90;99.90;;;;;;5053404;28;20372;-42
2022/10/28 03:30:32;;;;;;;27.92;16.20;;;14.90;99.90;;;;;;5055225;28;20128;-45
2022/10/28 03:32:59;;;;;;;30.20;16.10;;;14.90;99.90;;;;;;5037595;28;20127;-42
2022/10/28 03:35:25;;;;;;;32.63;16.33;;;15.00;99.90;;;;;;5055348;28;20141;-42
2022/10/28 03:37:52;;;;;;;38.22;15.40;;;14.90;99.90;;;;;;5054566;28;20224;-41
2022/10/28 03:40:19;;;;;;;34.85;15.35;;;14.90;99.90;;;;;;5035837;28;20107;-42
2022/10/28 03:42:47;;;;;;;31.27;16.08;;;14.90;99.90;;;;;;5037868;28;20106;-42
2022/10/28 03:45:14;;;;;;;27.40;16.00;;;15.00;99.90;;;;;;5037786;28;20156;-41
2022/10/28 03:47:41;;;;;;;27.02;15.20;;;14.90;99.90;;;;;;5036131;28;20107;-41
2022/10/28 03:50:08;;;;;;;38.95;14.43;;;14.90;99.90;;;;;;5053502;28;20049;-44
2022/10/28 03:52:35;;;;;;;35.30;15.55;;;14.90;99.90;;;;;;5052477;28;20130;-43
2022/10/28 03:55:02;;;;;;;30.70;15.02;;;15.00;99.90;;;;;;5036653;28;20519;-43
2022/10/28 03:57:30;;;;;;;34.25;15.40;;;14.90;99.90;;;;;;5053147;28;20472;-43
2022/10/28 03:59:58;;;;;;;31.80;15.10;;;14.90;99.90;;;;;;5053127;28;20125;-41
2022/10/28 04:02:25;;;;;;;28.08;14.88;;;14.90;99.90;;;;;;5052719;28;20400;-42
2022/10/28 04:04:52;;;;;;;32.53;15.27;;;14.90;99.90;;;;;;5034967;28;20045;-42
2022/10/28 04:07:19;;;;;;;30.08;15.00;;;15.00;99.90;;;;;;5033148;28;20128;-42
2022/10/28 04:09:48;;;;;;;31.83;14.75;;;14.90;99.90;;;;;;5052496;28;20128;-44
2022/10/28 04:12:15;;;;;;;27.05;15.30;;;14.90;99.90;;;;;;5044420;28;20471;-42
2022/10/28 04:14:42;;;;;;;30.50;15.60;;;14.90;99.90;;;;;;5049626;28;20085;-41
2022/10/28 04:17:10;;;;;;;31.13;14.63;;;14.90;99.90;;;;;;5027903;28;20148;-43
2022/10/28 04:19:36;;;;;;;28.85;15.07;;;14.90;99.90;;;;;;5036131;28;20130;-43
2022/10/28 04:22:03;;;;;;;28.55;15.55;;;15.00;99.90;;;;;;5052185;28;20089;-41
2022/10/28 04:24:30;;;;;;;33.35;15.20;;;14.90;99.90;;;;;;5052221;28;20133;-42
2022/10/28 04:26:57;;;;;;;31.52;15.20;;;14.90;99.90;;;;;;5053550;28;20072;-43
2022/10/28 04:29:23;;;;;;;27.70;14.88;;;14.80;99.90;;;;;;5053313;28;20453;-41
2022/10/28 04:31:50;;;;;;;26.17;13.70;;;14.80;99.90;;;;;;5034738;28;20136;-42
2022/10/28 04:34:18;;;;;;;31.38;14.93;;;14.80;99.90;;;;;;5053644;28;20124;-41
2022/10/28 04:36:45;;;;;;;29.80;13.88;;;14.80;99.90;;;;;;5051102;28;20531;-42
2022/10/28 04:39:12;;;;;;;33.08;14.43;;;14.80;99.90;;;;;;5027056;28;20565;-41
2022/10/28 04:41:40;;;;;;;31.13;13.77;;;14.70;99.90;;;;;;5019180;28;20106;-42
2022/10/28 04:44:07;;;;;;;32.63;15.18;;;14.70;99.90;;;;;;5052587;28;20052;-42
2022/10/28 04:46:39;;;;;;;26.83;14.27;;;14.70;99.90;;;;;;5035933;28;20545;-42
2022/10/28 04:49:11;;;;;;;30.63;14.27;;;14.70;99.90;;;;;;5050492;28;20103;-43
2022/10/28 04:51:39;;;;;;;24.60;14.02;;;14.70;99.90;;;;;;5034855;28;20057;-43
2022/10/28 04:54:06;;;;;;;23.85;14.38;;;14.60;99.90;;;;;;5033982;28;20083;-43
2022/10/28 04:56:33;;;;;;;23.02;14.40;;;14.60;99.90;;;;;;5050642;28;20083;-43
2022/10/28 04:58:59;;;;;;;33.97;14.35;;;14.60;99.90;;;;;;5032635;28;20055;-44
2022/10/28 05:01:26;;;;;;;25.77;14.70;;;14.60;99.90;;;;;;5049628;28;20098;-44
2022/10/28 05:03:53;;;;;;;25.98;13.88;;;14.50;99.90;;;;;;5033739;28;20060;-43
2022/10/28 05:06:20;;;;;;;33.10;15.02;;;14.60;99.90;;;;;;5030538;28;20085;-41
2022/10/28 05:08:48;;;;;;;36.92;14.50;;;14.60;99.90;;;;;;5051683;28;20098;-42
2022/10/28 05:11:15;;;;;;;27.30;14.50;;;14.50;99.90;;;;;;5032278;28;20485;-43
2022/10/28 05:13:42;;;;;;;27.88;13.93;;;14.50;99.90;;;;;;5050173;28;20049;-41
2022/10/28 05:16:08;;;;;;;25.63;14.43;;;14.50;99.90;;;;;;5033377;28;20125;-42
2022/10/28 05:18:35;;;;;;;28.40;13.90;;;14.50;99.90;;;;;;5033313;28;20056;-43
2022/10/28 05:21:05;;;;;;;35.58;13.70;;;14.60;99.90;;;;;;5048918;28;20092;-41
2022/10/28 05:23:32;;;;;;;32.35;14.30;;;14.50;99.90;;;;;;5051182;28;20076;-43
2022/10/28 05:26:00;;;;;;;32.55;14.27;;;14.50;99.90;;;;;;5051706;28;20063;-42
2022/10/28 05:28:27;;;;;;;29.48;13.43;;;14.50;99.90;;;;;;5032416;28;20118;-41
2022/10/28 05:30:54;;;;;;;27.20;14.77;;;14.50;99.90;;;;;;5043415;28;20094;-41
2022/10/28 05:33:20;;;;;;;26.92;14.20;;;14.40;99.90;;;;;;5051137;28;20131;-41
2022/10/28 05:35:47;;;;;;;30.80;15.35;;;14.40;99.90;;;;;;5050501;28;20479;-42
2022/10/28 05:38:14;;;;;;;30.00;13.57;;;14.40;99.90;;;;;;5049098;28;20471;-42
2022/10/28 05:40:41;;;;;;;30.38;14.02;;;14.40;99.90;;;;;;5050138;28;20053;-43
2022/10/28 05:43:09;;;;;;;25.40;13.10;;;14.40;99.90;;;;;;5033992;28;20048;-41
2022/10/28 05:45:36;;;;;;;26.20;13.63;;;14.40;99.90;;;;;;5050562;28;20057;-42
2022/10/28 05:48:02;;;;;;;30.65;13.43;;;14.40;99.90;;;;;;5048857;28;20081;-42
2022/10/28 05:50:29;;;;;;;30.15;14.25;;;14.40;99.90;;;;;;5046389;28;20084;-42
2022/10/28 05:52:56;;;;;;;24.67;12.63;;;14.40;99.90;;;;;;5047815;28;20149;-42
2022/10/28 05:55:26;;;;;;;27.25;13.48;;;14.40;99.90;;;;;;5050317;28;20080;-41
2022/10/28 05:57:53;;;;;;;23.55;13.93;;;14.40;99.90;;;;;;5033476;28;20124;-42
2022/10/28 06:00:23;;;;;;;24.15;12.80;;;14.30;99.90;;;;;;5030878;28;20831;-41
2022/10/28 06:02:49;;;;;;;25.63;13.18;;;14.30;99.90;;;;;;5038519;28;20136;-42
2022/10/28 06:05:16;;;;;;;33.20;13.80;;;14.30;99.90;;;;;;5035331;28;20091;-42
2022/10/28 06:07:43;;;;;;;25.45;13.02;;;14.30;99.90;;;;;;5050721;28;20049;-42
2022/10/28 06:10:10;;;;;;;32.28;13.25;;;14.30;99.90;;;;;;5048838;28;20462;-43
2022/10/28 06:12:37;;;;;;;30.17;13.55;;;14.20;99.90;;;;;;5031463;28;20135;-43
2022/10/28 06:15:04;;;;;;;27.35;12.88;;;14.30;99.90;;;;;;5050022;28;20132;-41
2022/10/28 06:17:32;;;;;;;31.92;12.85;;;14.30;99.90;;;;;;5049726;28;20049;-41
2022/10/28 06:19:59;;;;;;;26.85;13.48;;;14.30;99.90;;;;;;5032024;28;20071;-42
2022/10/28 06:22:26;;;;;;;26.77;13.05;;;14.30;99.90;;;;;;5030415;28;20069;-42
2022/10/28 06:24:53;;;;;;;29.23;13.38;;;14.30;99.90;;;;;;5030211;28;20110;-43
2022/10/28 06:27:19;;;;;;;27.52;12.55;;;14.30;99.90;;;;;;5050958;28;20134;-41
2022/10/28 06:29:46;;;;;;;25.13;12.50;;;14.30;99.90;;;;;;5044633;28;20051;-41
2022/10/28 06:32:13;;;;;;;30.23;12.57;;;14.30;99.90;;;;;;5014466;28;20137;-42
2022/10/28 06:34:41;;;;;;;28.90;13.05;;;14.30;99.90;;;;;;5045869;28;20095;-42
2022/10/28 06:37:09;;;;;;;26.50;12.70;;;14.30;99.90;;;;;;5030596;28;20110;-43
2022/10/28 06:39:36;;;;;;;33.40;13.85;;;14.30;99.90;;;;;;5051132;28;20055;-43
2022/10/28 06:42:03;;;;;;;22.17;12.70;;;14.30;99.90;;;;;;5032115;28;20053;-43
2022/10/28 06:44:30;;;;;;;27.65;12.75;;;14.30;99.90;;;;;;5031612;28;20060;-42
2022/10/28 06:46:57;;;;;;;30.40;12.40;;;14.30;99.90;;;;;;5049309;28;20077;-41
2022/10/28 06:49:24;;;;;;;36.00;12.55;;;14.30;99.90;;;;;;5032116;28;20120;-42
2022/10/28 06:51:52;;;;;;;28.13;12.65;;;14.30;99.90;;;;;;5046639;28;20056;-43
2022/10/28 06:54:19;;;;;;;24.95;12.75;;;14.30;99.90;;;;;;5028248;28;20147;-42
2022/10/28 06:56:47;;;;;;;25.88;12.57;;;14.30;99.90;;;;;;5046712;28;20132;-42
2022/10/28 06:59:13;;;;;;;32.00;13.13;;;14.40;99.90;;;;;;5031502;28;20041;-43
2022/10/28 07:01:40;;;;;;;23.92;11.52;;;14.40;99.90;;;;;;5049924;28;20124;-43
2022/10/28 07:04:09;;;;;;;29.95;12.38;;;14.40;99.90;;;;;;5033371;28;20089;-43
2022/10/28 07:06:35;;;;;;;32.60;11.93;;;14.40;99.90;;;;;;5050242;28;20053;-41
2022/10/28 07:09:04;;;;;;;26.25;11.10;;;14.40;99.90;;;;;;5047494;28;20141;-43
2022/10/28 07:11:30;;;;;;;25.83;11.60;;;14.50;99.90;;;;;;5026211;28;20057;-41
2022/10/28 07:13:57;;;;;;;23.42;11.20;;;14.50;99.90;;;;;;5049670;28;20378;-42
2022/10/28 07:16:24;;;;;;;26.23;11.50;;;14.50;99.90;;;;;;5024961;28;20461;-44
2022/10/28 07:18:51;;;;;;;29.05;11.75;;;14.60;99.90;;;;;;5051303;28;20152;-44
2022/10/28 07:21:20;;;;;;;30.63;12.15;;;14.60;99.90;;;;;;5028354;28;20100;-41
2022/10/28 07:23:47;;;;;;;26.90;11.60;;;14.60;99.90;;;;;;5039877;28;20136;-44
2022/10/28 07:26:15;;;;;;;28.77;11.57;;;14.60;99.90;;;;;;5049500;28;20103;-42
2022/10/28 07:28:42;;;;;;;27.17;10.75;;;14.70;99.90;;;;;;5031920;28;20132;-43
2022/10/28 07:31:08;;;;;;;24.90;11.70;;;14.80;99.90;;;;;;5049668;28;20485;-43
2022/10/28 07:33:35;;;;;;;25.58;11.60;;;14.80;99.90;;;;;;5047192;28;20501;-43
2022/10/28 07:36:03;;;;;;;23.35;11.27;;;14.80;99.90;;;;;;5049682;28;20592;-41
2022/10/28 07:38:30;;;;;;;28.90;11.88;;;14.80;99.90;;;;;;5030941;28;20397;-42
2022/10/28 07:40:56;;;;;;;23.00;11.55;;;14.90;99.90;;;;;;5049378;28;20507;-42
2022/10/28 07:43:25;;;;;;;16.85;10.15;;;14.90;99.90;;;;;;5051341;28;20077;-42
2022/10/28 07:45:56;;;;;;;30.10;10.85;;;15.00;99.90;;;;;;5031029;28;20049;-44
2022/10/28 07:48:22;;;;;;;32.08;11.30;;;15.10;99.90;;;;;;5049320;28;20041;-42
2022/10/28 07:50:49;;;;;;;26.05;10.57;;;15.10;99.90;;;;;;5049439;28;20049;-42
2022/10/28 07:53:16;;;;;;;32.20;10.80;;;15.20;99.90;;;;;;5051091;28;20076;-41
2022/10/28 07:55:43;;;;;;;21.00;9.68;;;15.30;99.90;;;;;;5052642;28;20559;-42
2022/10/28 07:58:09;;;;;;;30.67;10.63;;;15.30;99.90;;;;;;5050580;28;20045;-43
2022/10/28 08:00:37;;;;;;;30.45;10.45;;;15.40;99.90;;;;;;5035371;28;20133;-42
2022/10/28 08:03:04;;;;;;;28.50;11.02;;;15.40;99.90;;;;;;5047822;28;20059;-43
2022/10/28 08:05:31;;;;;;;26.90;10.02;;;15.40;99.90;;;;;;5034393;28;20049;-43
2022/10/28 08:07:58;;;;;;;21.13;10.10;;;15.50;99.90;;;;;;5034764;28;20382;-42
2022/10/28 08:10:24;;;;;;;26.77;10.45;;;15.50;99.90;;;;;;5032572;28;20465;-44
2022/10/28 08:12:51;;;;;;;20.83;9.90;;;15.50;99.90;;;;;;5033727;28;20140;-43
2022/10/28 08:15:20;;;;;;;28.70;10.30;;;15.50;99.90;;;;;;5054398;28;20127;-44
2022/10/28 08:17:52;;;;;;;22.73;9.68;;;15.60;99.90;;;;;;5052044;28;20401;-43
2022/10/28 08:20:19;;;;;;;25.25;8.85;;;15.60;99.90;;;;;;5053562;28;20131;-40
2022/10/28 08:22:45;;;;;;;25.85;10.75;;;15.70;99.90;;;;;;5052830;28;20440;-44
2022/10/28 08:25:12;;;;;;;28.20;10.45;;;15.70;99.90;;;;;;5034975;28;20458;-41
2022/10/28 08:27:41;;;;;;;23.48;9.60;;;15.80;99.90;;;;;;5053359;28;20460;-42
2022/10/28 08:30:08;;;;;;;26.08;9.52;;;15.80;99.90;;;;;;5048977;28;20127;-43
2022/10/28 08:32:35;;;;;;;22.98;10.02;;;15.90;99.90;;;;;;5053502;28;20402;-42
2022/10/28 08:35:03;;;;;;;25.90;9.63;;;16.00;99.90;;;;;;5054193;28;20171;-43
2022/10/28 08:37:30;;;;;;;29.83;9.93;;;16.00;99.90;;;;;;5054170;28;20567;-41
2022/10/28 08:39:57;;;;;;;26.15;9.10;;;16.10;99.90;;;;;;5054377;28;20136;-42
2022/10/28 08:42:33;;;;;;;23.67;10.50;;;16.20;99.90;;;;;;5053095;28;20087;-41
2022/10/28 08:45:10;;;;;;;27.15;9.27;;;16.20;99.90;;;;;;5036823;28;20049;-42
2022/10/28 08:47:40;;;;;;;21.83;9.15;;;16.30;99.90;;;;;;5054537;28;20128;-43
2022/10/28 08:50:12;;;;;;;20.55;9.10;;;16.40;99.90;;;;;;5036734;28;20095;-41
2022/10/28 08:52:41;;;;;;;21.95;9.13;;;16.50;99.90;;;;;;5054584;28;20126;-41
2022/10/28 08:55:11;;;;;;;18.08;8.30;;;16.60;99.90;;;;;;5036860;28;20092;-42
2022/10/28 08:57:40;;;;;;;22.33;7.80;;;16.70;99.90;;;;;;5036757;28;20053;-41
2022/10/28 09:00:08;;;;;;;18.40;7.60;;;16.80;99.90;;;;;;5036727;28;20053;-44
2022/10/28 09:02:45;;;;;;;22.90;7.72;;;17.00;99.90;;;;;;5035281;28;20128;-40
2022/10/28 09:05:20;;;;;;;22.40;8.13;;;17.10;99.90;;;;;;5036207;28;20135;-41
2022/10/28 09:07:46;;;;;;;24.20;7.78;;;17.20;99.90;;;;;;5054350;28;20044;-41
2022/10/28 09:10:14;;;;;;;20.23;7.68;;;17.20;99.90;;;;;;5054181;28;20124;-40
2022/10/28 09:12:43;;;;;;;21.38;7.40;;;17.30;99.90;;;;;;5054189;28;20120;-41
2022/10/28 09:15:17;;;;;;;17.70;7.15;;;17.30;99.90;;;;;;5036298;28;20128;-41
2022/10/28 09:17:49;;;;;;;20.77;7.03;;;17.40;99.90;;;;;;5036004;28;20044;-41
2022/10/28 09:20:18;;;;;;;;;;;17.40;99.90;;;;;;5035352;28;21802;-40
2022/10/28 09:22:48;;;;;;;25.63;7.70;;;17.50;99.90;;;;;;5020422;28;19927;-40
2022/10/28 09:25:21;;;;;;;26.15;7.93;;;17.50;99.90;;;;;;5035176;28;20169;-40
2022/10/28 09:27:56;;;;;;;23.95;7.05;;;17.50;99.90;;;;;;5034566;28;20052;-40
2022/10/28 09:30:28;;;;;;;27.40;7.60;;;17.60;99.90;;;;;;5049735;28;20049;-40
2022/10/28 09:33:02;;;;;;;20.73;7.65;;;17.60;99.90;;;;;;5053879;28;20084;-40
2022/10/28 09:35:32;;;;;;;25.27;7.35;;;17.70;99.90;;;;;;5051785;28;20131;-40
2022/10/28 09:38:01;;;;;;;24.45;7.40;;;17.70;99.90;;;;;;5052396;28;20137;-39
2022/10/28 09:40:29;;;;;;;26.27;7.90;;;17.70;99.90;;;;;;5051331;28;20461;-41
2022/10/28 09:42:59;;;;;;;21.20;7.40;;;17.70;99.90;;;;;;5049966;28;20132;-40
2022/10/28 09:45:26;;;;;;;21.15;7.07;;;17.80;99.90;;;;;;5050921;28;20167;-39
2022/10/28 09:47:56;;;;;;;20.42;7.80;;;17.80;99.90;;;;;;5033953;28;20106;-40
2022/10/28 09:50:24;;;;;;;20.05;7.72;;;17.80;99.90;;;;;;5052412;28;20503;-40
2022/10/28 09:52:54;;;;;;;21.58;7.80;;;17.80;99.90;;;;;;5041035;28;20674;-40
2022/10/28 09:55:21;;;;;;;20.83;6.82;;;17.90;99.90;;;;;;5024871;28;20080;-39
2022/10/28 09:57:48;;;;;;;23.83;7.45;;;17.90;99.90;;;;;;5031941;28;20438;-40
2022/10/28 10:00:15;;;;;;;18.73;7.55;;;17.90;99.90;;;;;;5028892;28;20061;-39
2022/10/28 10:02:42;;;;;;;20.40;7.40;;;17.90;99.90;;;;;;5034950;28;20147;-39
2022/10/28 10:05:12;;;;;;;20.17;7.97;;;17.90;99.90;;;;;;5051029;28;20084;-40
2022/10/28 10:07:39;;;;;;;19.80;7.40;;;17.90;99.90;;;;;;5034640;28;20144;-40
2022/10/28 10:10:12;;;;;;;27.05;7.57;;;17.90;99.90;;;;;;5050232;28;20140;-40
2022/10/28 10:12:38;;;;;;;21.33;6.88;;;17.90;99.90;;;;;;5050490;28;20053;-39
2022/10/28 10:15:06;;;;;;;20.17;7.03;;;17.90;99.90;;;;;;5034092;28;20133;-40
2022/10/28 10:17:36;;;;;;;23.05;7.68;;;17.90;99.90;;;;;;5031372;28;20516;-39
2022/10/28 10:20:05;;;;;;;14.48;6.55;;;18.00;99.90;;;;;;5051837;28;20477;-39
2022/10/28 10:22:32;;;;;;;20.38;7.55;;;18.00;99.90;;;;;;5047983;28;20135;-39
2022/10/28 10:24:59;;;;;;;19.15;6.95;;;18.10;99.90;;;;;;5052103;28;20118;-39
2022/10/28 10:27:27;;;;;;;24.67;7.95;;;18.10;99.90;;;;;;5034150;28;20136;-40
2022/10/28 10:29:54;;;;;;;27.38;7.20;;;18.20;99.90;;;;;;5033703;28;20472;-40
2022/10/28 10:32:23;;;;;;;21.27;7.43;;;18.30;99.90;;;;;;5049451;28;20049;-39
2022/10/28 10:34:52;;;;;;;18.38;7.10;;;18.30;99.90;;;;;;5016025;28;20136;-40
2022/10/28 10:37:20;;;;;;;22.17;7.38;;;18.50;99.90;;;;;;5044145;28;20048;-38
2022/10/28 10:40:04;;;;;;;22.15;6.93;;;18.50;99.90;;;;;;5034194;28;20524;-39
2022/10/28 10:42:32;;;;;;;23.55;8.02;;;18.50;99.90;;;;;;5038303;28;20102;-40
2022/10/28 10:45:02;;;;;;;15.32;6.50;;;18.50;99.90;;;;;;5047094;28;20400;-39
2022/10/28 10:47:29;;;;;;;23.73;6.80;;;18.60;99.90;;;;;;5051504;28;20059;-40
2022/10/28 10:50:17;;;;;;;15.73;5.95;;;18.70;99.90;;;;;;5050004;28;20536;-39
2022/10/28 10:52:48;;;;;;;21.02;6.70;;;18.80;99.90;;;;;;5051847;28;20500;-39
2022/10/28 10:55:20;;;;;;;21.95;6.82;;;18.80;99.90;;;;;;5051746;28;20061;-40
2022/10/28 10:57:49;;;;;;;20.88;6.75;;;18.80;99.90;;;;;;5032812;28;20503;-38
2022/10/28 11:00:17;;;;;;;21.83;6.70;;;18.90;99.90;;;;;;5033704;28;20103;-38
2022/10/28 11:02:45;;;;;;;20.98;6.30;;;18.90;99.90;;;;;;5046145;28;20053;-39
2022/10/28 11:05:12;;;;;;;18.70;7.07;;;18.90;99.90;;;;;;5050379;28;20497;-38
2022/10/28 11:07:39;;;;;;;21.58;6.43;;;18.90;99.90;;;;;;5050478;28;20509;-39
2022/10/28 11:10:07;;;;;;;17.95;6.22;;;19.00;99.90;;;;;;5035562;28;20059;-39
2022/10/28 11:12:34;;;;;;;20.58;6.50;;;19.10;99.90;;;;;;5037790;28;20053;-39
2022/10/28 11:15:04;;;;;;;21.25;6.40;;;19.20;99.90;;;;;;5055092;28;20052;-40
2022/10/28 11:17:31;;;;;;;23.63;6.50;;;19.30;99.90;;;;;;5047611;28;20149;-40
2022/10/28 11:19:59;;;;;;;25.67;6.78;;;19.40;99.90;;;;;;5045666;28;20072;-37
2022/10/28 11:22:32;;;;;;;21.70;6.70;;;19.40;99.90;;;;;;5054498;28;20404;-40
2022/10/28 11:25:10;;;;;;;20.63;6.78;;;19.60;99.90;;;;;;5037863;28;20464;-38
2022/10/28 11:27:44;;;;;;;23.30;7.72;;;19.60;99.90;;;;;;5054017;28;20128;-39
2022/10/28 11:30:13;;;;;;;18.88;6.55;;;19.70;99.90;;;;;;5039619;28;20076;-37
2022/10/28 11:32:50;;;;;;;21.23;6.82;;;19.80;99.90;;;;;;5052551;28;20560;-38
2022/10/28 11:35:46;;;;;;;24.10;6.88;;;19.80;99.90;;;;;;5054264;28;20084;-39
2022/10/28 11:38:19;;;;;;;19.08;7.07;;;19.90;99.90;;;;;;5028511;28;20049;-38
2022/10/28 11:40:54;;;;;;;18.58;7.03;;;19.90;99.90;;;;;;5056140;28;20052;-39
2022/10/28 11:43:26;;;;;;;24.63;6.63;;;20.00;99.90;;;;;;5054846;28;20477;-38
2022/10/28 11:45:59;;;;;;;23.25;7.47;;;20.00;99.90;;;;;;5052039;28;20136;-39
2022/10/28 11:48:35;;;;;;;20.30;6.85;;;20.00;99.90;;;;;;5032963;28;20064;-38
2022/10/28 11:51:14;;;;;;;22.55;7.75;;;20.10;99.90;;;;;;5050951;28;20551;-39
2022/10/28 11:54:09;;;;;;;21.25;6.57;;;20.20;99.90;;;;;;5053923;28;20096;-40
2022/10/28 11:56:37;;;;;;;19.42;6.82;;;20.30;99.90;;;;;;5044196;28;20464;-40
2022/10/28 11:59:14;;;;;;;20.42;7.50;;;20.30;99.90;;;;;;5055305;28;20136;-38
2022/10/28 12:01:47;;;;;;;20.30;6.55;;;20.40;99.90;;;;;;5036694;28;20489;-38
2022/10/28 12:04:25;;;;;;;23.65;6.85;;;20.40;99.90;;;;;;5055518;28;20156;-41
2022/10/28 12:07:26;;;;;;;19.00;6.35;;;20.50;99.90;;;;;;5054215;28;20132;-38
2022/10/28 12:10:01;;;;;;;28.60;7.27;;;20.50;99.90;;;;;;4996436;28;20486;-38
2022/10/28 12:12:30;;;;;;;27.77;7.43;;;20.40;99.90;;;;;;5054104;28;20129;-39
2022/10/28 12:15:01;;;;;;;27.33;7.13;;;20.40;99.90;;;;;;5054604;28;20092;-39
2022/10/28 12:17:31;;;;;;;25.88;8.13;;;20.40;99.90;;;;;;5036283;28;20059;-38
2022/10/28 12:19:59;;;;;;;20.55;7.13;;;20.40;99.90;;;;;;5054341;28;20559;-38
2022/10/28 12:22:27;;;;;;;27.73;6.88;;;20.40;99.90;;;;;;5034868;28;20084;-38
2022/10/28 12:24:54;;;;;;;20.45;5.85;;;20.40;99.90;;;;;;5052357;28;20095;-39
2022/10/28 12:27:23;;;;;;;18.55;6.15;;;20.40;99.90;;;;;;5053623;28;20053;-38
2022/10/28 12:29:52;;;;;;;21.33;6.72;;;20.40;99.90;;;;;;5038175;28;20136;-38
2022/10/28 12:32:21;;;;;;;24.33;6.68;;;20.40;99.90;;;;;;5047622;28;20095;-39
2022/10/28 12:34:51;;;;;;;19.77;5.88;;;20.40;99.90;;;;;;5052695;28;20408;-38
2022/10/28 12:37:19;;;;;;;20.38;6.50;;;20.50;99.90;;;;;;5036982;28;20088;-38
2022/10/28 12:39:50;;;;;;;26.35;7.10;;;20.40;99.90;;;;;;5053978;28;20467;-37